Map

Track Data

SID SEASON NUMBER BASIN SUBBASIN NAME ISO_TIME NATURE LAT LON WMO_WIND WMO_PRES WMO_AGENCY TRACK_TYPE DIST2LAND LANDFALL IFLAG USA_AGENCY USA_ATCF_ID USA_LAT USA_LON USA_RECORD USA_STATUS USA_WIND USA_PRES USA_SSHS USA_R34_NE USA_R34_SE USA_R34_SW USA_R34_NW USA_R50_NE USA_R50_SE USA_R50_SW USA_R50_NW USA_R64_NE USA_R64_SE USA_R64_SW USA_R64_NW USA_POCI USA_ROCI USA_RMW USA_EYE TOKYO_LAT TOKYO_LON TOKYO_GRADE TOKYO_WIND TOKYO_PRES TOKYO_R50_DIR TOKYO_R50_LONG TOKYO_R50_SHORT TOKYO_R30_DIR TOKYO_R30_LONG TOKYO_R30_SHORT TOKYO_LAND CMA_LAT CMA_LON CMA_CAT CMA_WIND CMA_PRES HKO_LAT HKO_LON HKO_CAT HKO_WIND HKO_PRES NEWDELHI_LAT NEWDELHI_LON NEWDELHI_GRADE NEWDELHI_WIND NEWDELHI_PRES NEWDELHI_CI NEWDELHI_DP NEWDELHI_POCI REUNION_LAT REUNION_LON REUNION_TYPE REUNION_WIND REUNION_PRES REUNION_TNUM REUNION_CI REUNION_RMW REUNION_R34_NE REUNION_R34_SE REUNION_R34_SW REUNION_R34_NW REUNION_R50_NE REUNION_R50_SE REUNION_R50_SW REUNION_R50_NW REUNION_R64_NE REUNION_R64_SE REUNION_R64_SW REUNION_R64_NW BOM_LAT BOM_LON BOM_TYPE BOM_WIND BOM_PRES BOM_TNUM BOM_CI BOM_RMW BOM_R34_NE BOM_R34_SE BOM_R34_SW BOM_R34_NW BOM_R50_NE BOM_R50_SE BOM_R50_SW BOM_R50_NW BOM_R64_NE BOM_R64_SE BOM_R64_SW BOM_R64_NW BOM_ROCI BOM_POCI BOM_EYE BOM_POS_METHOD BOM_PRES_METHOD NADI_LAT NADI_LON NADI_CAT NADI_WIND NADI_PRES WELLINGTON_LAT WELLINGTON_LON WELLINGTON_WIND WELLINGTON_PRES DS824_LAT DS824_LON DS824_STAGE DS824_WIND DS824_PRES TD9636_LAT TD9636_LON TD9636_STAGE TD9636_WIND TD9636_PRES TD9635_LAT TD9635_LON TD9635_WIND TD9635_PRES TD9635_ROCI NEUMANN_LAT NEUMANN_LON NEUMANN_CLASS NEUMANN_WIND NEUMANN_PRES MLC_LAT MLC_LON MLC_CLASS MLC_WIND MLC_PRES USA_GUST BOM_GUST BOM_GUST_PER REUNION_GUST REUNION_GUST_PER USA_SEAHGT USA_SEARAD_NE USA_SEARAD_SE USA_SEARAD_SW USA_SEARAD_NW STORM_SPEED STORM_DIR
1858224N27287 1858 10 NA NA NOT_NAMED 1858-08-11 12:00:00 TS 27.0000 -73.0000 main 542 541 _____________O -1 27.0000 -73.0000 TD 30 7 345
1858224N27287 1858 10 NA NA NOT_NAMED 1858-08-11 15:00:00 TS 27.3600 -73.1098 main 551 548 _____________P -1 27.3600 -73.1098 TD 30 7 346
1858224N27287 1858 10 NA NA NOT_NAMED 1858-08-11 18:00:00 TS 27.7000 -73.2000 main 558 558 _____________O -1 27.7000 -73.2000 TD 30 7 348
1858224N27287 1858 10 NA NA NOT_NAMED 1858-08-11 21:00:00 TS 28.0075 -73.2576 main 568 568 _____________P -1 28.0075 -73.2576 TD 30 6 352
1858224N27287 1858 10 NA NA NOT_NAMED 1858-08-12 00:00:00 TS 28.3000 -73.3000 main 587 587 _____________O -1 28.3000 -73.3000 TD 30 6 353
1858224N27287 1858 10 NA NA NOT_NAMED 1858-08-12 03:00:00 TS 28.6000 -73.3500 main 600 600 _____________P -1 28.6000 -73.3500 TD 30 6 352
1858224N27287 1858 10 NA NA NOT_NAMED 1858-08-12 06:00:00 TS 28.9000 -73.4000 main 622 622 _____________O -1 28.9000 -73.4000 TD 30 6 352
1858224N27287 1858 10 NA NA NOT_NAMED 1858-08-12 09:00:00 TS 29.2075 -73.4426 main 645 644 _____________P -1 29.2075 -73.4426 TD 30 6 352
1858224N27287 1858 10 NA NA NOT_NAMED 1858-08-12 12:00:00 TS 29.5000 -73.5000 main 644 620 _____________O -1 29.5000 -73.5000 TD 30 6 346
1858224N27287 1858 10 NA NA NOT_NAMED 1858-08-12 15:00:00 TS 29.7575 -73.6000 main 610 586 _____________P -1 29.7575 -73.6000 TD 30 5 341
1858224N27287 1858 10 NA NA NOT_NAMED 1858-08-12 18:00:00 TS 30.0000 -73.7000 main 586 561 _____________O -1 30.0000 -73.7000 TD 30 5 344
1858224N27287 1858 10 NA NA NOT_NAMED 1858-08-12 21:00:00 TS 30.2500 -73.7576 main 561 532 _____________P -1 30.2500 -73.7576 TD 30 5 350
1858224N27287 1858 10 NA NA NOT_NAMED 1858-08-13 00:00:00 TS 30.5000 -73.8000 main 532 512 _____________O -1 30.5000 -73.8000 TD 30 5 351
1858224N27287 1858 10 NA NA NOT_NAMED 1858-08-13 03:00:00 TS 30.7500 -73.8500 main 497 478 _____________P -1 30.7500 -73.8500 TD 30 5 350
1858224N27287 1858 10 NA NA NOT_NAMED 1858-08-13 06:00:00 TS 31.0000 -73.9000 main 478 459 _____________O -1 31.0000 -73.9000 TD 30 5 349
1858224N27287 1858 10 NA NA NOT_NAMED 1858-08-13 09:00:00 TS 31.2275 -73.9501 main 454 425 _____________P -1 31.2275 -73.9501 TD 30 5 350
1858224N27287 1858 10 NA NA NOT_NAMED 1858-08-13 12:00:00 TS 31.5000 -74.0000 main 425 388 _____________O -1 31.5000 -74.0000 TD 30 7 352
1858224N27287 1858 10 NA NA NOT_NAMED 1858-08-13 15:00:00 TS 31.9000 -74.0500 main 388 347 _____________P -1 31.9000 -74.0500 TD 30 8 354
1858224N27287 1858 10 NA NA NOT_NAMED 1858-08-13 18:00:00 TS 32.3000 -74.1000 main 347 322 _____________O -1 32.3000 -74.1000 TD 30 7 353
1858224N27287 1858 10 NA NA NOT_NAMED 1858-08-13 21:00:00 TS 32.5650 -74.1501 main 316 299 _____________P -1 32.5650 -74.1501 TD 30 5 350
1858224N27287 1858 10 NA NA NOT_NAMED 1858-08-14 00:00:00 TS 32.8000 -74.2000 main 299 269 _____________O -1 32.8000 -74.2000 TD 30 5 350
1858224N27287 1858 10 NA NA NOT_NAMED 1858-08-14 03:00:00 TS 33.0925 -74.2574 main 269 248 _____________P -1 33.0925 -74.2574 TD 30 6 352
1858224N27287 1858 10 NA NA NOT_NAMED 1858-08-14 06:00:00 TS 33.4000 -74.3000 main 248 226 _____________O -1 33.4000 -74.3000 TD 30 6 356
1858224N27287 1858 10 NA NA NOT_NAMED 1858-08-14 09:00:00 TS 33.7150 -74.3001 main 226 208 _____________P -1 33.7150 -74.3001 TD 32 6 0
1858224N27287 1858 10 NA NA NOT_NAMED 1858-08-14 12:00:00 TS 34.0000 -74.3000 main 208 198 _____________O -1 34.0000 -74.3000 TS 35 5 355
1858224N27287 1858 10 NA NA NOT_NAMED 1858-08-14 15:00:00 TS 34.2150 -74.3425 main 198 178 _____________P -1 34.2150 -74.3425 TS 35 4 349
1858224N27287 1858 10 NA NA NOT_NAMED 1858-08-14 18:00:00 TS 34.4000 -74.4000 main 178 162 _____________O -1 34.4000 -74.4000 TS 35 4 347
1858224N27287 1858 10 NA NA NOT_NAMED 1858-08-14 21:00:00 TS 34.6000 -74.4500 main 155 140 _____________P -1 34.6000 -74.4500 TS 35 4 349
1858224N27287 1858 10 NA NA NOT_NAMED 1858-08-15 00:00:00 TS 34.8000 -74.5000 main 140 126 _____________O -1 34.8000 -74.5000 TS 35 4 349
1858224N27287 1858 10 NA NA NOT_NAMED 1858-08-15 03:00:00 TS 35.0075 -74.5500 main 119 105 _____________P -1 35.0075 -74.5500 TS 35 4 349
1858224N27287 1858 10 NA NA NOT_NAMED 1858-08-15 06:00:00 TS 35.2000 -74.6000 main 105 98 _____________O -1 35.2000 -74.6000 TS 35 4 347
1858224N27287 1858 10 NA NA NOT_NAMED 1858-08-15 09:00:00 TS 35.3500 -74.6426 main 98 79 _____________P -1 35.3500 -74.6426 TS 35 3 346
1858224N27287 1858 10 NA NA NOT_NAMED 1858-08-15 12:00:00 TS 35.5000 -74.7000 main 79 64 _____________O -1 35.5000 -74.7000 TS 35 4 340
1858224N27287 1858 10 NA NA NOT_NAMED 1858-08-15 15:00:00 TS 35.6925 -74.7999 main 64 53 _____________P -1 35.6925 -74.7999 TS 35 4 338
1858224N27287 1858 10 NA NA NOT_NAMED 1858-08-15 18:00:00 TS 35.9000 -74.9000 main 55 54 _____________O -1 35.9000 -74.9000 TS 35 4 343
1858224N27287 1858 10 NA NA NOT_NAMED 1858-08-15 21:00:00 TS 36.1000 -74.9576 main 54 54 _____________P -1 36.1000 -74.9576 TS 35 4 349
1858224N27287 1858 10 NA NA NOT_NAMED 1858-08-16 00:00:00 TS 36.3000 -75.0000 main 63 63 _____________O -1 36.3000 -75.0000 TS 35 4 349
1858224N27287 1858 10 NA NA NOT_NAMED 1858-08-16 03:00:00 TS 36.5075 -75.0500 main 63 63 _____________P -1 36.5075 -75.0500 TS 35 4 349
1858224N27287 1858 10 NA NA NOT_NAMED 1858-08-16 06:00:00 TS 36.7000 -75.1000 main 70 70 _____________O -1 36.7000 -75.1000 TS 35 4 349
1858224N27287 1858 10 NA NA NOT_NAMED 1858-08-16 09:00:00 TS 36.8500 -75.1352 main 74 62 _____________P -1 36.8500 -75.1352 TS 35 3 346
1858224N27287 1858 10 NA NA NOT_NAMED 1858-08-16 12:00:00 TS 37.0000 -75.2000 main 62 48 _____________O -1 37.0000 -75.2000 TS 35 4 334
1858224N27287 1858 10 NA NA NOT_NAMED 1858-08-16 15:00:00 TS 37.2151 -75.3572 main 41 20 _____________P -1 37.2151 -75.3572 TS 35 5 329
1858224N27287 1858 10 NA NA NOT_NAMED 1858-08-16 18:00:00 TS 37.4000 -75.5000 main 20 8 _____________O -1 37.4000 -75.5000 TS 35 3 324
1858224N27287 1858 10 NA NA NOT_NAMED 1858-08-16 21:00:00 TS 37.4721 -75.5975 main 8 8 _____________P -1 37.4721 -75.5975 TS 35 1 0
1858224N27287 1858 10 NA NA NOT_NAMED 1858-08-17 00:00:00 TS 37.5000 -75.5000 main 17 17 _____________O -1 37.5000 -75.5000 TS 35 4 79
1858224N27287 1858 10 NA NA NOT_NAMED 1858-08-17 03:00:00 TS 37.5498 -75.1125 main 48 41 _____________P -1 37.5498 -75.1125 TS 35 8 83
1858224N27287 1858 10 NA NA NOT_NAMED 1858-08-17 06:00:00 TS 37.6000 -74.5000 main 89 89 _____________O -1 37.6000 -74.5000 TS 35 11 85
1858224N27287 1858 10 NA NA NOT_NAMED 1858-08-17 09:00:00 TS 37.6503 -73.7800 main 131 131 _____________P -1 37.6503 -73.7800 TS 37 12 85
1858224N27287 1858 10 NA NA NOT_NAMED 1858-08-17 12:00:00 TS 37.7000 -73.0000 main 195 195 _____________O -1 37.7000 -73.0000 TS 40 12 85
1858224N27287 1858 10 NA NA NOT_NAMED 1858-08-17 15:00:00 TS 37.7495 -72.2924 main 253 250 _____________P -1 37.7495 -72.2924 TS 40 11 85
1858224N27287 1858 10 NA NA NOT_NAMED 1858-08-17 18:00:00 TS 37.8000 -71.6000 main 300 300 _____________O -1 37.8000 -71.6000 TS 40 11 85
1858224N27287 1858 10 NA NA NOT_NAMED 1858-08-17 21:00:00 TS 37.8496 -70.8999 main 349 343 _____________P -1 37.8496 -70.8999 TS 42 11 85
1858224N27287 1858 10 NA NA NOT_NAMED 1858-08-18 00:00:00 TS 37.9000 -70.2000 main 382 382 _____________O -1 37.9000 -70.2000 TS 45 11 84
1858224N27287 1858 10 NA NA NOT_NAMED 1858-08-18 03:00:00 TS 37.9572 -69.4926 main 402 402 _____________P -1 37.9572 -69.4926 TS 45 11 85
1858224N27287 1858 10 NA NA NOT_NAMED 1858-08-18 06:00:00 TS 38.0000 -68.8000 main 421 421 _____________O -1 38.0000 -68.8000 TS 45 10 89
1858224N27287 1858 10 NA NA NOT_NAMED 1858-08-18 09:00:00 TS 37.9688 -68.1785 main 439 439 _____________P -1 37.9688 -68.1785 TS 45 10 90
1858224N27287 1858 10 NA NA NOT_NAMED 1858-08-18 12:00:00 TS 38.0000 -67.5000 main 463 463 _____________O -1 38.0000 -67.5000 TS 45 12 79
1858224N27287 1858 10 NA NA NOT_NAMED 1858-08-18 15:00:00 TS 38.2128 -66.6309 main 484 481 _____________P -1 38.2128 -66.6309 TS 45 15 71
1858224N27287 1858 10 NA NA NOT_NAMED 1858-08-18 18:00:00 TS 38.5000 -65.7000 main 509 509 _____________O -1 38.5000 -65.7000 TS 45 15 69
1858224N27287 1858 10 NA NA NOT_NAMED 1858-08-18 21:00:00 TS 38.7492 -64.8418 main 535 510 _____________P -1 38.7492 -64.8418 TS 45 14 69
1858224N27287 1858 10 NA NA NOT_NAMED 1858-08-19 00:00:00 TS 39.0000 -64.0000 main 512 501 _____________O -1 39.0000 -64.0000 TS 45 14 69
1858224N27287 1858 10 NA NA NOT_NAMED 1858-08-19 03:00:00 TS 39.2567 -63.1571 main 498 498 _____________P -1 39.2567 -63.1571 TS 45 14 69
1858224N27287 1858 10 NA NA NOT_NAMED 1858-08-19 06:00:00 TS 39.5000 -62.3000 main 509 509 _____________O -1 39.5000 -62.3000 TS 45 14 74
1858224N27287 1858 10 NA NA NOT_NAMED 1858-08-19 09:00:00 TS 39.6395 -61.4041 main 541 537 _____________P -1 39.6395 -61.4041 TS 45 14 74
1858224N27287 1858 10 NA NA NOT_NAMED 1858-08-19 12:00:00 TS 39.9000 -60.5000 main 560 536 _____________O -1 39.9000 -60.5000 TS 45 16 59
1858224N27287 1858 10 NA NA NOT_NAMED 1858-08-19 15:00:00 TS 40.4817 -59.6082 main 533 481 _____________P -1 40.4817 -59.6082 TS 45 19 46
1858224N27287 1858 10 NA NA NOT_NAMED 1858-08-19 18:00:00 TS 41.2000 -58.7000 main 485 457 _____________O -1 41.2000 -58.7000 TS 45 20 46
1858224N27287 1858 10 NA NA NOT_NAMED 1858-08-19 21:00:00 TS 41.8496 -57.7485 main 466 443 _____________P -1 41.8496 -57.7485 TS 45 19 47
1858224N27287 1858 10 NA NA NOT_NAMED 1858-08-20 00:00:00 TS 42.5000 -56.8000 main 448 411 _____________O -1 42.5000 -56.8000 TS 45 19 46
1858224N27287 1858 10 NA NA NOT_NAMED 1858-08-20 03:00:00 TS 43.1566 -55.8907 main 400 329 _____________P -1 43.1566 -55.8907 TS 45 18 45
1858224N27287 1858 10 NA NA NOT_NAMED 1858-08-20 06:00:00 ET 43.8000 -55.0000 main 329 248 _____________O -1 43.8000 -55.0000 EX 45 18 46
1858224N27287 1858 10 NA NA NOT_NAMED 1858-08-20 09:00:00 ET 44.4115 -54.1060 main 247 177 _____________P -1 44.4115 -54.1060 EX 45 18 47
1858224N27287 1858 10 NA NA NOT_NAMED 1858-08-20 12:00:00 ET 45.0000 -53.2000 main 177 _____________O -1 45.0000 -53.2000 EX 45 994 17 47

About IBTrACS Database

This database is a web-friendly format of International Best Track Archive for Climate Stewardship (IBTrACS), a global best track data archive curated by NOAA dating back to 1842.

Updated: 2021-10-21